Halifax, Vermont
Current Conditions -  °F | °C
As of 4:52 AM on Sunday 23 Nov 2014 (Local Time) from KAQW Reporting Station
Haze Haze  
Wind Chill: 35°   Ceiling: 3100
Heat Index: 35°   Visibility: 6mi
Dew Point: 33°   Wind: 3mph
Humidity: 92%   Direction: 160°SSE
Pressure: 30.08"   Gusts: NA
Location:  42.7575°N, 72.7347°W
Report Text: KAQW 230952Z AUTO 16003KT 6SM BR OVC031 02/01 A3008 RMK AO2 UPE02RAB30E43 SLP195 P0000 T00170006
Loading
Personal Weather Stations






























Interactive Weather Map New forecast layout! Learn more

10-Day Weather Forecast

Advertisements
Track Severe Weather on mobile